Apache Junction, AZ

10:04 PM MST on March 01, 2015 (GMT -0700)
Superstition Foothills | Change Station
CLOSE
Current Station
Personal Weather Station
Location: Apache Junction, AZ
Elevation: 1916 ft
Nearby Weather Stations

Elev 1916 ft 33.41 °N, 111.47 °W | Updated 1 minute ago

Mostly Cloudy
Mostly Cloudy
62.5 °F
Feels Like 62.5 °F
N
0.0
Wind Variable Wind from East
Gusts 3.0 mph

Today
High -- | Low -- °F
--% Chance of Precip.
Yesterday
High -- | Low -- °F
Precip. -- in
6:53 AM 6:22 PM
Waxing Gibbous, 89% visible
Pressure 29.96 in
Visibility 20.0 miles
Clouds Mostly Cloudy 15000 ft
Dew Point 46 °F
Humidity 55%
Rainfall 0.00 in
Snow Depth Not available.
UV 0 out of 12
Pollen 9.00 out of 12
Air Quality Not available.
Flu Activity Not available.
METAR KIWA 020455Z 18005KT 20SM BKN150 16/08 A2996

More Conditions Fewer Conditions

Pressure 29.96 in
Visibility 20.0 miles
Clouds Mostly Cloudy 15000 ft
Dew Point 46 °F
Humidity 55%
Rainfall 0.00 in
Snow Depth Not available.
UV 0 out of 12
Pollen 9.00 out of 12
Air Quality Not available.
Flu Activity Not available.
METAR KIWA 020455Z 18005KT 20SM BKN150 16/08 A2996

More Conditions Fewer Conditions

10-Day Weather Forecast

Almanac

Astronomy

Mar. 01, 2015 Rise Set
Actual Time
Civil Twilight
Nautical Twilight
Astronomical Twilight
Moon
Length of Visible Light
Length of Day
Tomorrow will be .
, % of the Moon is Illuminated

Today's Extremes

State Highs State Lows

Community

WunderPhotos

Upload Photos

1,801,728 photos uploaded!

WunderBlogs® & News

Nearby

Air Quality

  Air Quality AQ Index Pollutant
Not available.

Snow Depth

Station Depth Elevation

Earthquake Activity

City Distance Mag. Time & Date
Minimum magnitude displayed is 2.5.

Coastal Water Temperatures

Place Temperature

Nearby Weather Stations